Time;durP1;ratioP1;P1;durP2;ratioP2;P2;SDS_P1;SDS_P2;PMS_P1;PMS_P2;Temp;Humidity;BMP_temperature;BMP_pressure;BME280_temperature;BME280_humidity;BME280_pressure;Samples;Min_cycle;Max_cycle;Signal;HPM_P1;HPM_P2
2023/05/06 00:00:57;;;;;;;5.80;4.27;;;11.70;99.90;;;;;;5114449;28;20039;-71
2023/05/06 00:03:22;;;;;;;7.70;4.57;;;11.60;99.90;;;;;;5113982;28;20048;-71
2023/05/06 00:05:49;;;;;;;8.90;4.00;;;11.50;99.90;;;;;;5113831;28;20043;-71
2023/05/06 00:08:15;;;;;;;6.53;4.15;;;11.50;99.90;;;;;;5114080;28;20118;-70
2023/05/06 00:10:40;;;;;;;6.13;4.37;;;11.40;99.90;;;;;;5113971;28;20586;-70
2023/05/06 00:13:07;;;;;;;8.18;4.30;;;11.40;99.90;;;;;;5114005;28;20111;-70
2023/05/06 00:15:33;;;;;;;5.40;4.47;;;11.30;99.90;;;;;;5114015;28;20036;-71
2023/05/06 00:17:59;;;;;;;7.53;4.93;;;11.30;99.90;;;;;;5113973;28;20302;-70
2023/05/06 00:20:26;;;;;;;6.97;4.63;;;11.20;99.90;;;;;;5113989;28;20368;-70
2023/05/06 00:22:51;;;;;;;8.13;4.30;;;11.20;99.90;;;;;;5113928;28;20050;-70
2023/05/06 00:25:18;;;;;;;5.70;4.07;;;11.50;99.90;;;;;;5113560;28;20027;-70
2023/05/06 00:27:43;;;;;;;5.13;4.07;;;11.10;99.90;;;;;;5114345;28;20075;-70
2023/05/06 00:30:10;;;;;;;5.32;4.38;;;11.00;99.90;;;;;;5113866;28;20124;-71
2023/05/06 00:32:36;;;;;;;5.22;4.20;;;10.90;99.90;;;;;;5112952;28;20470;-70
2023/05/06 00:35:02;;;;;;;5.53;4.10;;;10.90;99.90;;;;;;5113847;28;20119;-71
2023/05/06 00:37:28;;;;;;;6.35;4.97;;;10.90;99.90;;;;;;5147001;27;20115;-70
2023/05/06 00:39:54;;;;;;;5.55;4.22;;;11.20;99.90;;;;;;5113702;28;20071;-71
2023/05/06 00:42:22;;;;;;;5.78;4.60;;;10.80;99.90;;;;;;5113780;28;20437;-71
2023/05/06 00:44:51;;;;;;;6.20;4.70;;;10.80;99.90;;;;;;5113654;28;20047;-70
2023/05/06 00:47:17;;;;;;;6.22;5.15;;;10.70;99.90;;;;;;5114211;28;20046;-70
2023/05/06 00:49:45;;;;;;;5.75;4.43;;;10.70;99.90;;;;;;5117509;28;20048;-71
2023/05/06 00:52:12;;;;;;;6.78;4.57;;;10.60;99.90;;;;;;5117416;28;20043;-71
2023/05/06 00:54:37;;;;;;;7.32;4.72;;;10.60;99.90;;;;;;5117333;28;20039;-70
2023/05/06 00:57:03;;;;;;;6.43;4.80;;;10.50;99.90;;;;;;5117342;28;20036;-71
2023/05/06 00:59:29;;;;;;;6.57;4.68;;;10.50;99.90;;;;;;5117846;28;20367;-71
2023/05/06 01:01:55;;;;;;;5.78;4.43;;;10.40;99.90;;;;;;5117203;28;20043;-70
2023/05/06 01:04:22;;;;;;;5.47;4.03;;;10.30;99.90;;;;;;5116772;28;20135;-70
2023/05/06 01:07:06;;;;;;;7.13;4.88;;;10.30;99.90;;;;;;5117160;28;20082;-70
2023/05/06 01:09:46;;;;;;;5.90;4.95;;;10.30;99.90;;;;;;5117566;28;20122;-71
2023/05/06 01:12:36;;;;;;;8.40;5.63;;;10.20;99.90;;;;;;5116917;28;20459;-70
2023/05/06 01:15:10;;;;;;;9.00;6.18;;;10.10;99.90;;;;;;5116965;28;20040;-70
2023/05/06 01:17:42;;;;;;;7.43;5.53;;;10.10;99.90;;;;;;5117032;28;20047;-70
2023/05/06 01:20:10;;;;;;;5.90;5.28;;;10.10;99.90;;;;;;5117298;28;20422;-71
2023/05/06 01:22:37;;;;;;;7.10;5.10;;;10.00;99.90;;;;;;5116815;28;20050;-70
2023/05/06 01:25:03;;;;;;;7.57;5.03;;;10.00;99.90;;;;;;5116788;28;20083;-70
2023/05/06 01:27:29;;;;;;;7.68;5.30;;;10.00;99.90;;;;;;5116916;28;20035;-70
2023/05/06 01:29:55;;;;;;;9.65;5.85;;;10.00;99.90;;;;;;5150148;27;20032;-70
2023/05/06 01:32:48;;;;;;;7.07;4.70;;;10.00;99.90;;;;;;5116694;27;20079;-70
2023/05/06 01:35:33;;;;;;;8.50;5.78;;;10.00;99.90;;;;;;5116650;28;20086;-71
2023/05/06 01:38:23;;;;;;;7.43;5.40;;;10.00;99.90;;;;;;5116341;28;20353;-70
2023/05/06 01:40:53;;;;;;;7.65;5.97;;;10.00;99.90;;;;;;5116491;28;20043;-71
2023/05/06 01:43:19;;;;;;;7.97;5.55;;;10.30;99.90;;;;;;5116881;28;20040;-70
2023/05/06 01:45:51;;;;;;;7.70;5.40;;;10.10;99.90;;;;;;5116570;28;20088;-70
2023/05/06 01:48:26;;;;;;;7.28;5.47;;;10.10;99.90;;;;;;5116435;28;20036;-70
2023/05/06 01:50:52;;;;;;;8.75;5.70;;;10.10;99.90;;;;;;5116224;28;20046;-70
2023/05/06 01:53:18;;;;;;;7.80;5.70;;;10.10;99.90;;;;;;5116217;28;20031;-70
2023/05/06 01:55:43;;;;;;;7.80;5.45;;;10.20;99.90;;;;;;5116206;28;20043;-71
2023/05/06 01:58:09;;;;;;;8.90;5.75;;;10.30;99.90;;;;;;5115630;28;20062;-71
2023/05/06 02:00:37;;;;;;;9.70;6.20;;;10.30;99.90;;;;;;5116089;28;20058;-70
2023/05/06 02:03:02;;;;;;;8.85;6.15;;;10.30;99.90;;;;;;5115771;28;20040;-70
2023/05/06 02:05:28;;;;;;;8.02;5.95;;;10.30;99.90;;;;;;5116006;28;20047;-70
2023/05/06 02:07:54;;;;;;;8.00;5.60;;;10.30;99.90;;;;;;5115976;28;20088;-70
2023/05/06 02:10:19;;;;;;;8.60;5.72;;;10.20;99.90;;;;;;5115851;28;20043;-70
2023/05/06 02:12:45;;;;;;;6.30;4.72;;;10.20;99.90;;;;;;5115543;28;20042;-71
2023/05/06 02:15:10;;;;;;;7.00;5.45;;;10.40;99.90;;;;;;5116100;28;20051;-69
2023/05/06 02:17:37;;;;;;;10.63;6.18;;;10.10;99.90;;;;;;5115765;28;20032;-71
2023/05/06 02:20:03;;;;;;;6.57;5.10;;;10.00;99.90;;;;;;5115692;28;20040;-71
2023/05/06 02:22:29;;;;;;;8.65;6.00;;;10.00;99.90;;;;;;5116151;28;20038;-70
2023/05/06 02:24:54;;;;;;;10.93;5.75;;;10.00;99.90;;;;;;5115540;28;20048;-70
2023/05/06 02:27:20;;;;;;;8.73;5.70;;;10.00;99.90;;;;;;5115603;28;20043;-71
2023/05/06 02:29:45;;;;;;;7.57;5.93;;;9.90;99.90;;;;;;5115535;28;20455;-70
2023/05/06 02:32:11;;;;;;;8.88;6.38;;;9.80;99.90;;;;;;5115621;28;20467;-71
2023/05/06 02:34:37;;;;;;;9.55;6.95;;;9.80;99.90;;;;;;5115452;28;20039;-70
2023/05/06 02:37:02;;;;;;;9.50;6.18;;;9.80;99.90;;;;;;5115364;28;20031;-70
2023/05/06 02:39:28;;;;;;;8.52;5.78;;;9.70;99.90;;;;;;5115350;28;20044;-70
2023/05/06 02:41:53;;;;;;;6.90;5.20;;;9.70;99.90;;;;;;5115652;28;20035;-70
2023/05/06 02:44:19;;;;;;;8.98;5.85;;;9.70;99.90;;;;;;5115252;28;20473;-70
2023/05/06 02:46:44;;;;;;;8.30;6.15;;;9.70;99.90;;;;;;5115157;28;20039;-70
2023/05/06 02:49:10;;;;;;;13.05;7.22;;;9.60;99.90;;;;;;5148696;27;20077;-70
2023/05/06 02:51:35;;;;;;;8.10;5.82;;;9.60;99.90;;;;;;5115055;28;20039;-71
2023/05/06 02:54:01;;;;;;;9.25;6.53;;;9.60;99.90;;;;;;5115500;28;20036;-71
2023/05/06 02:56:27;;;;;;;10.98;7.13;;;9.50;99.90;;;;;;5115340;28;20035;-70
2023/05/06 02:58:52;;;;;;;12.30;6.95;;;9.50;99.90;;;;;;5115278;28;20046;-70
2023/05/06 03:01:18;;;;;;;9.55;6.28;;;9.50;99.90;;;;;;5114919;28;20123;-70
2023/05/06 03:03:44;;;;;;;9.90;6.57;;;9.50;99.90;;;;;;5114938;28;20075;-70
2023/05/06 03:06:10;;;;;;;9.32;6.55;;;9.40;99.90;;;;;;5114729;28;20042;-70
2023/05/06 03:08:36;;;;;;;22.20;6.18;;;9.30;99.90;;;;;;5114514;28;20043;-70
2023/05/06 03:11:01;;;;;;;8.13;5.88;;;9.40;99.90;;;;;;5114546;28;20085;-70
2023/05/06 03:13:27;;;;;;;11.68;6.57;;;9.30;99.90;;;;;;5114902;28;20398;-71
2023/05/06 03:15:53;;;;;;;9.02;6.03;;;9.30;99.90;;;;;;5114653;28;20112;-70
2023/05/06 03:18:19;;;;;;;14.70;5.93;;;9.30;99.90;;;;;;5114710;28;20089;-70
2023/05/06 03:20:47;;;;;;;8.80;5.82;;;9.30;99.90;;;;;;5114526;28;20053;-70
2023/05/06 03:23:13;;;;;;;8.82;5.88;;;9.20;99.90;;;;;;5114980;28;20035;-70
2023/05/06 03:25:38;;;;;;;8.40;6.25;;;9.40;99.90;;;;;;5114419;28;20085;-70
2023/05/06 03:28:04;;;;;;;11.48;5.82;;;9.10;99.90;;;;;;5114485;28;20087;-70
2023/05/06 03:30:30;;;;;;;9.80;5.93;;;9.10;99.90;;;;;;5147877;27;20047;-70
2023/05/06 03:33:00;;;;;;;7.90;5.63;;;9.10;99.90;;;;;;5114434;28;20076;-70
2023/05/06 03:35:25;;;;;;;9.18;6.10;;;9.00;99.90;;;;;;5114277;28;20116;-70
2023/05/06 03:37:51;;;;;;;9.77;6.30;;;9.00;99.90;;;;;;5114560;28;20097;-70
2023/05/06 03:40:17;;;;;;;9.20;5.93;;;8.90;99.90;;;;;;5114162;28;20092;-71
2023/05/06 03:42:43;;;;;;;9.82;6.20;;;8.90;99.90;;;;;;5114344;28;20126;-70
2023/05/06 03:45:09;;;;;;;8.68;5.93;;;9.10;99.90;;;;;;5114186;28;20120;-70
2023/05/06 03:47:34;;;;;;;9.48;6.72;;;8.90;99.90;;;;;;5114276;28;20083;-70
2023/05/06 03:50:00;;;;;;;10.38;6.15;;;8.90;99.90;;;;;;5114247;28;20054;-70
2023/05/06 03:52:26;;;;;;;8.30;5.85;;;8.80;99.90;;;;;;5114126;28;20035;-70
2023/05/06 03:54:51;;;;;;;7.53;5.57;;;8.80;99.90;;;;;;5114480;28;20092;-70
2023/05/06 03:57:17;;;;;;;11.32;5.90;;;8.80;99.90;;;;;;5113944;28;20438;-70
2023/05/06 03:59:42;;;;;;;13.85;7.60;;;8.70;99.90;;;;;;5114061;28;20034;-70
2023/05/06 04:02:08;;;;;;;37.97;8.88;;;9.00;99.90;;;;;;5114216;28;20376;-70
2023/05/06 04:04:33;;;;;;;9.43;6.18;;;8.70;99.90;;;;;;5112523;28;20049;-70
2023/05/06 04:06:59;;;;;;;23.52;8.52;;;8.80;99.90;;;;;;5113649;28;20048;-70
2023/05/06 04:09:25;;;;;;;33.50;8.40;;;8.70;99.90;;;;;;5113781;28;20069;-70
2023/05/06 04:11:51;;;;;;;13.65;8.18;;;8.70;99.90;;;;;;5114013;28;20071;-70
2023/05/06 04:14:16;;;;;;;15.90;7.70;;;9.10;99.90;;;;;;5114065;28;20047;-70
2023/05/06 04:16:42;;;;;;;12.82;7.40;;;8.80;99.90;;;;;;5113988;28;20092;-69
2023/05/06 04:19:07;;;;;;;13.48;8.18;;;8.80;99.90;;;;;;5113978;28;20080;-70
2023/05/06 04:21:33;;;;;;;14.23;8.32;;;8.80;99.90;;;;;;5114194;28;20062;-70
2023/05/06 04:23:59;;;;;;;14.70;7.90;;;8.90;99.90;;;;;;5118227;28;20104;-69
2023/05/06 04:26:24;;;;;;;14.55;7.60;;;8.90;99.90;;;;;;5117088;28;20378;-70
2023/05/06 04:28:50;;;;;;;43.92;9.18;;;8.90;99.90;;;;;;5151236;27;20028;-70
2023/05/06 04:31:16;;;;;;;17.63;7.85;;;9.00;99.90;;;;;;5117724;28;20048;-70
2023/05/06 04:33:41;;;;;;;38.90;8.55;;;9.00;99.90;;;;;;5117836;28;20083;-70
2023/05/06 04:36:07;;;;;;;23.15;7.93;;;9.30;99.90;;;;;;5117659;28;20078;-70
2023/05/06 04:38:34;;;;;;;13.70;7.83;;;9.00;99.90;;;;;;5117666;28;20036;-70
2023/05/06 04:41:00;;;;;;;13.55;7.93;;;9.10;99.90;;;;;;5117685;28;20266;-70
2023/05/06 04:43:29;;;;;;;10.00;7.50;;;9.10;99.90;;;;;;5117329;28;20383;-70
2023/05/06 04:45:56;;;;;;;12.10;7.63;;;9.20;99.90;;;;;;5117538;28;20035;-70
2023/05/06 04:48:22;;;;;;;12.07;7.53;;;9.30;99.90;;;;;;5117661;28;20047;-70
2023/05/06 04:50:51;;;;;;;14.27;7.82;;;9.40;99.90;;;;;;5117439;28;20035;-70
2023/05/06 04:53:17;;;;;;;17.92;9.02;;;9.40;99.90;;;;;;5117876;28;20082;-70
2023/05/06 04:55:42;;;;;;;20.08;8.15;;;9.50;99.90;;;;;;5117306;28;20075;-70
2023/05/06 04:58:08;;;;;;;18.23;9.05;;;9.60;99.90;;;;;;5117316;28;20043;-70
2023/05/06 05:00:34;;;;;;;46.47;9.60;;;9.70;99.90;;;;;;5117265;28;20075;-71
2023/05/06 05:03:00;;;;;;;15.43;8.50;;;9.80;99.90;;;;;;5117060;28;20035;-69
2023/05/06 05:05:27;;;;;;;17.33;8.65;;;9.90;99.90;;;;;;5117116;28;20035;-70
2023/05/06 05:07:53;;;;;;;19.85;9.45;;;10.00;99.90;;;;;;5117198;27;20046;-70
2023/05/06 05:10:18;;;;;;;15.73;8.93;;;10.00;99.90;;;;;;5117368;28;20371;-70
2023/05/06 05:12:45;;;;;;;30.95;9.38;;;10.10;99.90;;;;;;5117080;28;20184;-70
2023/05/06 05:15:11;;;;;;;29.48;9.88;;;10.30;99.90;;;;;;5116876;28;20044;-70
2023/05/06 05:17:36;;;;;;;31.48;9.55;;;10.30;99.90;;;;;;5116933;28;20042;-70
2023/05/06 05:20:03;;;;;;;31.23;9.90;;;10.40;99.90;;;;;;5116762;27;20039;-69
2023/05/06 05:22:29;;;;;;;22.48;10.02;;;10.40;99.90;;;;;;5116835;28;20058;-70
2023/05/06 05:24:54;;;;;;;13.65;8.82;;;10.50;99.90;;;;;;5116520;28;20036;-70
2023/05/06 05:27:20;;;;;;;11.10;8.38;;;10.50;99.90;;;;;;5116644;28;20518;-70
2023/05/06 05:29:46;;;;;;;20.20;8.85;;;11.00;99.90;;;;;;5116601;28;20101;-70
2023/05/06 05:32:11;;;;;;;17.77;8.05;;;10.70;99.90;;;;;;5116712;28;20035;-71
2023/05/06 05:34:37;;;;;;;27.27;8.07;;;10.80;99.90;;;;;;5116359;28;20490;-70
2023/05/06 05:37:02;;;;;;;13.10;7.60;;;10.90;99.90;;;;;;5116504;28;20061;-70
2023/05/06 05:39:28;;;;;;;15.88;7.78;;;10.90;99.90;;;;;;5116431;28;20413;-70
2023/05/06 05:41:53;;;;;;;13.27;7.10;;;10.90;99.90;;;;;;5116691;28;20047;-70
2023/05/06 05:44:19;;;;;;;11.20;7.07;;;11.00;99.90;;;;;;5116573;28;20075;-70
2023/05/06 05:46:45;;;;;;;9.55;7.03;;;11.10;99.90;;;;;;5116307;28;20345;-71
2023/05/06 05:49:10;;;;;;;9.32;6.95;;;11.10;99.90;;;;;;5116209;28;20089;-71
2023/05/06 05:51:36;;;;;;;9.95;7.03;;;11.20;99.90;;;;;;5116660;28;20048;-70
2023/05/06 05:54:02;;;;;;;9.35;6.32;;;11.30;99.90;;;;;;5149640;27;20462;-70
2023/05/06 05:56:27;;;;;;;8.63;6.18;;;11.40;99.90;;;;;;5116149;28;20035;-70
2023/05/06 05:58:53;;;;;;;9.20;6.63;;;11.50;99.90;;;;;;5115724;28;20114;-70
2023/05/06 06:01:18;;;;;;;9.60;6.60;;;11.50;99.90;;;;;;5115970;28;20048;-70
2023/05/06 06:03:44;;;;;;;11.75;6.35;;;11.60;99.90;;;;;;5115857;28;20044;-70
2023/05/06 06:06:10;;;;;;;9.30;6.50;;;11.70;99.90;;;;;;5116358;28;20425;-70
2023/05/06 06:08:35;;;;;;;13.93;8.43;;;11.60;99.90;;;;;;5115948;28;20468;-70
2023/05/06 06:11:03;;;;;;;10.90;7.28;;;11.90;99.90;;;;;;5116121;28;20076;-70
2023/05/06 06:13:29;;;;;;;13.52;8.32;;;12.00;99.90;;;;;;5115813;28;20044;-71
2023/05/06 06:15:58;;;;;;;10.83;7.60;;;12.20;99.90;;;;;;5115739;28;20114;-70
2023/05/06 06:18:23;;;;;;;11.82;7.80;;;12.40;99.90;;;;;;5115671;28;20040;-70
2023/05/06 06:20:49;;;;;;;12.93;8.57;;;12.60;99.90;;;;;;5115639;28;20498;-70
2023/05/06 06:23:15;;;;;;;11.13;7.80;;;12.80;99.90;;;;;;5115775;28;20443;-70
2023/05/06 06:25:40;;;;;;;13.32;8.02;;;13.00;99.90;;;;;;5115491;28;20036;-70
2023/05/06 06:28:06;;;;;;;12.95;7.97;;;13.20;99.90;;;;;;5115590;28;20112;-71
2023/05/06 06:30:32;;;;;;;13.73;8.27;;;13.30;99.90;;;;;;5115576;28;20043;-70
2023/05/06 06:33:00;;;;;;;14.35;9.02;;;13.40;99.90;;;;;;5115400;28;20133;-70
2023/05/06 06:35:26;;;;;;;14.60;8.88;;;13.60;99.90;;;;;;5115024;28;20036;-70
2023/05/06 06:37:52;;;;;;;14.25;9.10;;;13.70;99.90;;;;;;5115079;28;20527;-70
2023/05/06 06:40:18;;;;;;;15.03;9.63;;;13.80;99.90;;;;;;5115355;28;20031;-70
2023/05/06 06:42:44;;;;;;;16.23;8.77;;;13.90;99.90;;;;;;5115351;28;20088;-70
2023/05/06 06:45:10;;;;;;;16.95;10.05;;;14.00;99.90;;;;;;5114572;28;20058;-70
2023/05/06 06:47:36;;;;;;;14.33;8.40;;;14.10;99.90;;;;;;5115237;28;20398;-71
2023/05/06 06:50:01;;;;;;;15.00;9.57;;;14.10;99.90;;;;;;5115061;28;20042;-70
2023/05/06 06:52:27;;;;;;;14.93;8.95;;;14.30;99.90;;;;;;5115487;28;20039;-70
2023/05/06 06:54:53;;;;;;;16.77;9.82;;;14.40;99.90;;;;;;5114202;28;20109;-70
2023/05/06 06:57:19;;;;;;;15.57;8.60;;;14.40;99.90;;;;;;5115198;28;20114;-71
2023/05/06 06:59:46;;;;;;;13.47;8.50;;;14.50;99.90;;;;;;5114963;28;20148;-70
2023/05/06 07:02:12;;;;;;;15.35;9.18;;;14.70;99.90;;;;;;5114811;28;20270;-70
2023/05/06 07:04:37;;;;;;;14.30;8.70;;;14.80;99.90;;;;;;5115151;28;20130;-70
2023/05/06 07:07:03;;;;;;;15.73;9.23;;;15.00;99.90;;;;;;5114935;28;20071;-71
2023/05/06 07:09:28;;;;;;;13.15;7.78;;;15.20;99.90;;;;;;5114764;28;20471;-71
2023/05/06 07:11:54;;;;;;;12.40;7.10;;;15.30;99.90;;;;;;5114725;28;20036;-71
2023/05/06 07:14:19;;;;;;;11.50;6.63;;;15.30;99.90;;;;;;5113628;28;20036;-70
2023/05/06 07:16:45;;;;;;;12.35;7.68;;;15.40;99.90;;;;;;5114522;28;20075;-71
2023/05/06 07:19:11;;;;;;;11.30;7.40;;;15.50;99.90;;;;;;5114254;28;20036;-71
2023/05/06 07:21:36;;;;;;;12.05;7.88;;;15.80;99.90;;;;;;5115143;28;20042;-70
2023/05/06 07:24:02;;;;;;;12.63;8.02;;;16.00;99.90;;;;;;5114551;28;20039;-70
2023/05/06 07:26:27;;;;;;;12.02;7.68;;;16.30;99.90;;;;;;5114405;28;20367;-71
2023/05/06 07:28:53;;;;;;;13.17;7.70;;;16.50;99.90;;;;;;5114642;28;20172;-70
2023/05/06 07:31:19;;;;;;;11.53;7.37;;;16.70;99.90;;;;;;5114406;28;20388;-70
2023/05/06 07:33:48;;;;;;;11.60;7.00;;;16.90;99.90;;;;;;5114349;28;20047;-71
2023/05/06 07:36:14;;;;;;;13.55;9.00;;;17.00;99.90;;;;;;5114755;28;20120;-70
2023/05/06 07:38:40;;;;;;;13.17;8.43;;;16.80;99.90;;;;;;5114273;28;20501;-71
2023/05/06 07:41:05;;;;;;;12.40;8.33;;;16.70;99.90;;;;;;5114247;28;20039;-71
2023/05/06 07:43:31;;;;;;;11.77;8.13;;;16.70;99.90;;;;;;5114259;28;20074;-71
2023/05/06 07:46:01;;;;;;;10.53;7.60;;;16.40;99.90;;;;;;5114119;28;20036;-71
2023/05/06 07:48:28;;;;;;;13.07;7.93;;;16.40;99.90;;;;;;5114475;28;20489;-70
2023/05/06 07:50:54;;;;;;;11.95;8.57;;;16.40;99.90;;;;;;5114664;28;20051;-70
2023/05/06 07:53:20;;;;;;;14.03;9.73;;;16.30;99.90;;;;;;5114191;28;20043;-70
2023/05/06 07:55:45;;;;;;;14.67;9.67;;;16.40;99.90;;;;;;5114181;28;20100;-71
2023/05/06 07:58:11;;;;;;;15.60;10.33;;;16.40;99.90;;;;;;5117396;28;20044;-71
2023/05/06 08:00:36;;;;;;;16.17;10.53;;;16.60;99.90;;;;;;5118387;28;20078;-71
2023/05/06 08:03:02;;;;;;;16.43;10.27;;;16.80;99.90;;;;;;5118175;28;20451;-71
2023/05/06 08:05:28;;;;;;;19.85;11.32;;;17.00;99.90;;;;;;5118324;28;20047;-71
2023/05/06 08:07:54;;;;;;;15.47;10.83;;;17.20;99.90;;;;;;5118277;28;20062;-70
2023/05/06 08:10:21;;;;;;;18.00;11.20;;;17.40;99.90;;;;;;5118219;28;20122;-71
2023/05/06 08:12:46;;;;;;;18.00;11.27;;;17.50;99.90;;;;;;5118264;28;20096;-70
2023/05/06 08:15:12;;;;;;;20.03;12.13;;;17.70;99.90;;;;;;5118212;28;20039;-71
2023/05/06 08:17:38;;;;;;;20.23;13.13;;;17.70;99.90;;;;;;5118079;28;20455;-70
2023/05/06 08:20:04;;;;;;;17.20;11.43;;;17.80;99.90;;;;;;5118073;28;20042;-70
2023/05/06 08:22:29;;;;;;;19.37;11.43;;;17.90;99.90;;;;;;5117740;28;20054;-70
2023/05/06 08:24:56;;;;;;;17.50;11.47;;;17.90;99.90;;;;;;5118259;28;20273;-71
2023/05/06 08:27:22;;;;;;;17.83;10.50;;;18.10;99.90;;;;;;5117932;28;20051;-70
2023/05/06 08:29:47;;;;;;;17.67;11.63;;;18.20;99.90;;;;;;5117863;28;20039;-71
2023/05/06 08:32:13;;;;;;;20.07;11.53;;;18.20;99.90;;;;;;5117825;28;20130;-71
2023/05/06 08:34:38;;;;;;;19.10;11.80;;;18.20;99.90;;;;;;5117869;28;20035;-71
2023/05/06 08:37:04;;;;;;;19.20;10.63;;;18.10;99.90;;;;;;5117704;28;20468;-71
2023/05/06 08:39:30;;;;;;;20.13;11.20;;;18.00;99.90;;;;;;5118182;28;20089;-71
2023/05/06 08:41:57;;;;;;;19.03;10.67;;;18.00;99.90;;;;;;5117696;28;20047;-71
2023/05/06 08:44:24;;;;;;;16.90;10.50;;;18.00;99.90;;;;;;5117582;28;20097;-70
2023/05/06 08:46:49;;;;;;;19.95;12.00;;;18.00;99.90;;;;;;5117509;28;20387;-70
2023/05/06 08:49:15;;;;;;;16.23;9.40;;;18.10;99.90;;;;;;5117243;28;20035;-70
2023/05/06 08:51:45;;;;;;;20.20;10.93;;;18.20;99.90;;;;;;5117412;28;20046;-71
2023/05/06 08:54:11;;;;;;;20.25;11.07;;;18.20;99.90;;;;;;5117422;28;20051;-71
2023/05/06 08:56:46;;;;;;;17.75;10.18;;;18.30;99.90;;;;;;5115855;28;20036;-71
2023/05/06 08:59:12;;;;;;;19.80;11.90;;;18.10;99.90;;;;;;5117425;28;20109;-71
2023/05/06 09:01:38;;;;;;;14.38;7.90;;;18.20;99.90;;;;;;5117214;28;20050;-71
2023/05/06 09:04:06;;;;;;;16.77;10.93;;;18.30;99.90;;;;;;5116850;28;20048;-71
2023/05/06 09:06:32;;;;;;;19.25;10.80;;;18.30;99.90;;;;;;5117548;28;20479;-71
2023/05/06 09:08:58;;;;;;;12.88;8.32;;;18.20;99.90;;;;;;5116653;28;20065;-71
2023/05/06 09:11:26;;;;;;;12.27;7.07;;;18.40;99.90;;;;;;5117085;28;20047;-71
2023/05/06 09:14:06;;;;;;;9.40;5.57;;;18.40;99.90;;;;;;5117083;28;20039;-71
2023/05/06 09:16:32;;;;;;;11.38;6.70;;;18.50;99.90;;;;;;5116985;28;20104;-71
2023/05/06 09:18:58;;;;;;;13.40;7.67;;;18.60;99.90;;;;;;5116961;28;20065;-71
2023/05/06 09:21:35;;;;;;;14.10;8.10;;;18.80;99.90;;;;;;5116905;28;20118;-71
2023/05/06 09:24:02;;;;;;;10.15;6.18;;;18.80;99.90;;;;;;5116813;28;20039;-71
2023/05/06 09:26:33;;;;;;;9.50;5.72;;;18.90;99.90;;;;;;5116725;28;20119;-71
2023/05/06 09:28:59;;;;;;;11.23;6.78;;;18.90;99.90;;;;;;5116738;28;20083;-71
2023/05/06 09:31:26;;;;;;;15.60;6.70;;;18.90;99.90;;;;;;5117041;28;20044;-71
2023/05/06 09:33:52;;;;;;;;;;;19.00;99.90;;;;;;5117106;28;20043;-71
2023/05/06 09:36:18;;;;;;;7.68;4.82;;;19.00;99.90;;;;;;5116618;28;19920;-71
2023/05/06 09:38:44;;;;;;;10.60;6.22;;;19.10;99.90;;;;;;5116693;28;20070;-71
2023/05/06 09:41:11;;;;;;;11.80;7.73;;;19.20;99.90;;;;;;5116585;28;20467;-71
2023/05/06 09:43:40;;;;;;;7.78;5.32;;;19.30;99.90;;;;;;5116137;28;20115;-71
2023/05/06 09:46:07;;;;;;;8.90;5.00;;;19.40;99.90;;;;;;5116247;28;20043;-71
2023/05/06 09:48:33;;;;;;;7.53;4.80;;;19.50;99.90;;;;;;5116216;28;20039;-71
2023/05/06 09:50:58;;;;;;;10.07;5.10;;;19.60;99.90;;;;;;5116361;28;20050;-71
2023/05/06 09:53:26;;;;;;;8.80;4.87;;;19.70;99.90;;;;;;5116380;28;20043;-71
2023/05/06 09:55:52;;;;;;;9.10;4.95;;;19.80;99.90;;;;;;5116178;28;20075;-71
2023/05/06 09:58:19;;;;;;;8.85;5.13;;;19.90;99.90;;;;;;5116221;28;20348;-71
2023/05/06 10:00:45;;;;;;;9.07;4.65;;;20.10;99.90;;;;;;5116107;28;20040;-71
2023/05/06 10:03:13;;;;;;;6.95;4.57;;;20.30;99.90;;;;;;5115876;28;20047;-71
2023/05/06 10:05:39;;;;;;;9.05;5.13;;;20.60;99.90;;;;;;5114628;28;20425;-71
2023/05/06 10:08:06;;;;;;;8.52;5.22;;;20.80;99.90;;;;;;5115870;28;20032;-71
2023/05/06 10:10:33;;;;;;;7.93;4.78;;;21.00;99.90;;;;;;5115931;28;20044;-71
2023/05/06 10:13:03;;;;;;;7.18;5.03;;;21.10;99.90;;;;;;5116275;28;20048;-71
2023/05/06 10:15:31;;;;;;;5.82;3.88;;;20.90;99.90;;;;;;5115883;28;20097;-70
2023/05/06 10:17:57;;;;;;;8.82;4.65;;;20.90;99.90;;;;;;5115689;28;20093;-71
2023/05/06 10:20:25;;;;;;;;;;;21.00;99.90;;;;;;5115020;28;20051;-71
2023/05/06 10:22:50;;;;;;;8.20;3.90;;;21.00;99.90;;;;;;5115620;28;19919;-71
2023/05/06 10:25:37;;;;;;;7.47;4.23;;;21.00;99.90;;;;;;5115360;28;20097;-71
2023/05/06 10:28:08;;;;;;;8.60;4.00;;;20.80;99.90;;;;;;5115344;28;20570;-71
2023/05/06 10:30:35;;;;;;;6.63;4.18;;;20.90;99.90;;;;;;5115499;28;20035;-71
2023/05/06 10:33:08;;;;;;;7.30;3.80;;;20.60;99.90;;;;;;5115214;28;20106;-71
2023/05/06 10:36:00;;;;;;;7.30;4.10;;;20.50;99.90;;;;;;5115399;28;20432;-71
2023/05/06 10:38:31;;;;;;;7.90;4.43;;;20.30;99.90;;;;;;5115285;28;20097;-71
2023/05/06 10:40:57;;;;;;;6.55;4.85;;;20.20;99.90;;;;;;5115597;28;20039;-71
2023/05/06 10:43:33;;;;;;;6.85;4.25;;;20.00;99.90;;;;;;5115292;28;20123;-71
2023/05/06 10:46:04;;;;;;;7.68;4.70;;;20.00;99.90;;;;;;5115004;28;20472;-71
2023/05/06 10:48:30;;;;;;;11.55;4.50;;;19.80;99.90;;;;;;5115253;28;20035;-71
2023/05/06 10:51:15;;;;;;;8.60;4.55;;;19.70;99.90;;;;;;5115108;28;20088;-71
2023/05/06 10:54:06;;;;;;;7.75;4.50;;;19.60;99.90;;;;;;5115324;27;20053;-71
2023/05/06 10:56:32;;;;;;;6.60;5.07;;;19.60;99.90;;;;;;5114982;28;20123;-71
2023/05/06 10:59:06;;;;;;;7.60;5.13;;;19.60;99.90;;;;;;5115631;28;20177;-71
2023/05/06 11:01:33;;;;;;;9.48;4.95;;;19.50;99.90;;;;;;5115351;28;20476;-71
2023/05/06 11:04:11;;;;;;;7.00;4.63;;;19.80;99.90;;;;;;5114524;28;20383;-71
2023/05/06 11:06:47;;;;;;;8.75;5.03;;;20.10;99.90;;;;;;5114915;28;20048;-71
2023/05/06 11:09:26;;;;;;;7.90;5.20;;;20.40;99.90;;;;;;5114752;28;20063;-71
2023/05/06 11:12:01;;;;;;;;;;;20.90;99.90;;;;;;5115172;28;20043;-71
2023/05/06 11:14:34;;;;;;;7.40;5.20;;;21.10;99.90;;;;;;5114801;28;20010;-71
2023/05/06 11:17:20;;;;;;;7.88;5.43;;;21.50;99.90;;;;;;5114440;28;20049;-71
2023/05/06 11:19:46;;;;;;;5.85;4.32;;;21.60;99.90;;;;;;5114301;28;20043;-71
2023/05/06 11:22:39;;;;;;;8.20;5.30;;;21.80;99.90;;;;;;5114584;28;20122;-71
2023/05/06 11:25:05;;;;;;;8.77;5.15;;;21.90;99.90;;;;;;5114557;28;20044;-71
2023/05/06 11:27:31;;;;;;;7.50;5.65;;;21.90;99.90;;;;;;5114488;28;20032;-71
2023/05/06 11:29:57;;;;;;;7.90;5.40;;;22.00;99.90;;;;;;5114390;28;20055;-72
2023/05/06 11:32:27;;;;;;;10.27;5.40;;;22.10;99.90;;;;;;5114273;28;20035;-71
2023/05/06 11:34:56;;;;;;;13.38;5.80;;;22.10;99.90;;;;;;5114817;27;20053;-71
2023/05/06 11:37:28;;;;;;;8.35;5.63;;;22.10;99.90;;;;;;5114604;28;20130;-71
2023/05/06 11:39:54;;;;;;;8.73;5.35;;;22.00;99.90;;;;;;5113290;28;20044;-71
2023/05/06 11:42:24;;;;;;;9.40;5.37;;;21.70;99.90;;;;;;5114348;28;20387;-71
2023/05/06 11:44:53;;;;;;;7.43;5.35;;;21.50;99.90;;;;;;5114144;28;20104;-71
2023/05/06 11:47:22;;;;;;;6.97;5.05;;;21.40;99.90;;;;;;5114491;28;20433;-71
2023/05/06 11:49:52;;;;;;;8.93;6.03;;;21.10;99.90;;;;;;5114256;28;20114;-71
2023/05/06 11:52:19;;;;;;;8.50;6.03;;;20.80;99.90;;;;;;5114598;28;20036;-71
2023/05/06 11:54:46;;;;;;;8.48;5.80;;;20.70;99.90;;;;;;5114203;28;20114;-71
2023/05/06 11:57:12;;;;;;;7.72;5.13;;;20.80;99.90;;;;;;5114120;28;20043;-71
2023/05/06 11:59:39;;;;;;;6.40;5.18;;;21.00;99.90;;;;;;5114222;28;20081;-71
2023/05/06 12:02:07;;;;;;;8.13;4.50;;;21.00;99.90;;;;;;5114119;28;20039;-71
2023/05/06 12:04:44;;;;;;;9.57;5.03;;;21.10;99.90;;;;;;5113748;28;20092;-71
2023/05/06 12:07:12;;;;;;;6.93;5.07;;;21.20;99.90;;;;;;5114105;28;20047;-71
2023/05/06 12:09:41;;;;;;;8.60;5.30;;;21.20;99.90;;;;;;5114044;28;20035;-71
2023/05/06 12:12:07;;;;;;;6.88;4.60;;;21.20;99.90;;;;;;5114374;28;20032;-71
2023/05/06 12:14:34;;;;;;;;;;;21.20;99.90;;;;;;5114493;28;20079;-71
2023/05/06 12:17:00;;;;;;;6.93;4.77;;;21.00;99.90;;;;;;5113749;28;20374;-71
2023/05/06 12:19:27;;;;;;;11.53;5.47;;;20.90;99.90;;;;;;5114304;28;20047;-71
2023/05/06 12:21:53;;;;;;;7.60;5.25;;;20.70;99.90;;;;;;5114130;28;20043;-71
2023/05/06 12:24:31;;;;;;;6.70;4.57;;;20.70;99.90;;;;;;5113862;28;20471;-71
2023/05/06 12:26:56;;;;;;;7.88;4.78;;;20.60;99.90;;;;;;5113897;28;20078;-71
2023/05/06 12:29:22;;;;;;;8.13;4.80;;;20.60;99.90;;;;;;5113760;28;20046;-71
2023/05/06 12:31:48;;;;;;;6.77;4.87;;;20.60;99.90;;;;;;5113897;28;20043;-71
2023/05/06 12:34:17;;;;;;;7.30;5.53;;;20.50;99.90;;;;;;5113822;28;20036;-71
2023/05/06 12:36:46;;;;;;;17.17;5.93;;;20.50;99.90;;;;;;5113844;28;20273;-72
2023/05/06 12:39:12;;;;;;;7.65;5.68;;;20.30;99.90;;;;;;5113735;28;20440;-71
2023/05/06 12:41:43;;;;;;;8.82;5.97;;;20.10;99.90;;;;;;5113749;28;20050;-71
2023/05/06 12:44:31;;;;;;;7.30;5.22;;;20.10;99.90;;;;;;5117028;28;20122;-71
2023/05/06 12:46:58;;;;;;;8.93;5.70;;;20.10;99.90;;;;;;5117573;28;20036;-71